LAN733 MPTO-MGGT
Flight info
| Callsign | LAN733 |
|---|---|
| Flight time | 1h 53m |
| Altitude | 36000 |
| Route | AROVI DCT ANSON DCT MUTAL DCT AUR |
| Aircraft | A320/M-SDE3FGHIRWY/LB1 |
Departure
| Time | 2026-05-07 20:54 |
|---|---|
| Airport | Tocumen International Airport (MPTO) |
Arrival
| Time | 2026-05-07 22:48 |
|---|---|
| Airport | La Aurora International Airport (MGGT) |
| Time | Latitude | Longitude | Altitude | Speed | Heading |
|---|---|---|---|---|---|
| 2026-05-07 20:36 | 9.07106 | -79.38600 | 31 ft | 0 kts | 122° |
| 2026-05-07 20:46 | 9.07111 | -79.38608 | 31 ft | 2 kts | 121° |
| 2026-05-07 20:46 | 9.07120 | -79.38622 | 32 ft | 2 kts | 115° |
| 2026-05-07 20:46 | 9.07123 | -79.38638 | 31 ft | 2 kts | 30° |
| 2026-05-07 20:47 | 9.07119 | -79.38640 | 28 ft | 0 kts | 28° |
| 2026-05-07 20:49 | 9.07132 | -79.38633 | 31 ft | 6 kts | 28° |
| 2026-05-07 20:50 | 9.07191 | -79.38601 | 33 ft | 13 kts | 28° |
| 2026-05-07 20:50 | 9.07283 | -79.38557 | 34 ft | 16 kts | 22° |
| 2026-05-07 20:50 | 9.07288 | -79.38462 | 30 ft | 17 kts | 124° |
| 2026-05-07 20:50 | 9.07222 | -79.38354 | 30 ft | 19 kts | 121° |
| 2026-05-07 20:51 | 9.07154 | -79.38232 | 30 ft | 21 kts | 118° |
| 2026-05-07 20:51 | 9.07114 | -79.38118 | 30 ft | 15 kts | 65° |
| 2026-05-07 20:51 | 9.07198 | -79.38052 | 30 ft | 15 kts | 57° |
| 2026-05-07 20:51 | 9.07184 | -79.37984 | 30 ft | 0 kts | 119° |
| 2026-05-07 20:52 | 9.07183 | -79.37983 | 30 ft | 2 kts | 119° |
| 2026-05-07 20:52 | 9.07168 | -79.37955 | 30 ft | 7 kts | 119° |
| 2026-05-07 20:52 | 9.07122 | -79.37920 | 30 ft | 11 kts | 177° |
| 2026-05-07 20:53 | 9.07083 | -79.37941 | 30 ft | 0 kts | 211° |
| 2026-05-07 20:53 | 9.07073 | -79.37947 | 30 ft | 13 kts | 211° |
| 2026-05-07 20:53 | 9.06749 | -79.38132 | 29 ft | 90 kts | 209° |
| 2026-05-07 20:54 | 9.06027 | -79.38541 | 32 ft | 145 kts | 209° |
| 2026-05-07 20:54 | 9.05060 | -79.39082 | 399 ft | 161 kts | 208° |
| 2026-05-07 20:54 | 9.04063 | -79.39614 | 1081 ft | 163 kts | 208° |
| 2026-05-07 20:54 | 9.03048 | -79.40187 | 1682 ft | 170 kts | 211° |
| 2026-05-07 20:55 | 9.02096 | -79.40965 | 2071 ft | 187 kts | 241° |
| 2026-05-07 20:55 | 9.01918 | -79.42296 | 2447 ft | 203 kts | 283° |
| 2026-05-07 20:55 | 9.02465 | -79.43679 | 2781 ft | 224 kts | 293° |
| 2026-05-07 20:55 | 9.03110 | -79.45216 | 3149 ft | 250 kts | 292° |
| 2026-05-07 20:56 | 9.03799 | -79.46883 | 3896 ft | 260 kts | 292° |
| 2026-05-07 20:56 | 9.04486 | -79.48552 | 4790 ft | 265 kts | 292° |
| 2026-05-07 20:56 | 9.05209 | -79.50320 | 5713 ft | 268 kts | 292° |
| 2026-05-07 20:56 | 9.05925 | -79.52079 | 6604 ft | 272 kts | 292° |
| 2026-05-07 20:57 | 9.06649 | -79.53862 | 7466 ft | 276 kts | 292° |
| 2026-05-07 20:57 | 9.07372 | -79.55648 | 8308 ft | 280 kts | 292° |
| 2026-05-07 20:57 | 9.08112 | -79.57482 | 9142 ft | 283 kts | 292° |
| 2026-05-07 20:57 | 9.08862 | -79.59339 | 9965 ft | 287 kts | 292° |
| 2026-05-07 20:58 | 9.09630 | -79.61238 | 10551 ft | 301 kts | 292° |
| 2026-05-07 20:58 | 9.10453 | -79.63269 | 10853 ft | 322 kts | 292° |
| 2026-05-07 20:58 | 9.11318 | -79.65408 | 11461 ft | 331 kts | 292° |
| 2026-05-07 20:58 | 9.12194 | -79.67579 | 12206 ft | 335 kts | 292° |
| 2026-05-07 20:59 | 9.13078 | -79.69775 | 12935 ft | 339 kts | 292° |
| 2026-05-07 20:59 | 9.13973 | -79.71994 | 13641 ft | 343 kts | 292° |
| 2026-05-07 20:59 | 9.14881 | -79.74240 | 14326 ft | 346 kts | 292° |
| 2026-05-07 20:59 | 9.15796 | -79.76508 | 14995 ft | 350 kts | 292° |
| 2026-05-07 21:00 | 9.16720 | -79.78798 | 15634 ft | 353 kts | 292° |
| 2026-05-07 21:00 | 9.17654 | -79.81109 | 16272 ft | 356 kts | 292° |
| 2026-05-07 21:00 | 9.18597 | -79.83442 | 16900 ft | 360 kts | 292° |
| 2026-05-07 21:00 | 9.19547 | -79.85792 | 17499 ft | 363 kts | 292° |
| 2026-05-07 21:01 | 9.20507 | -79.88173 | 18100 ft | 366 kts | 292° |
| 2026-05-07 21:01 | 9.21472 | -79.90568 | 18677 ft | 370 kts | 292° |
| 2026-05-07 21:01 | 9.22449 | -79.92990 | 19250 ft | 373 kts | 292° |
| 2026-05-07 21:01 | 9.23421 | -79.95395 | 19786 ft | 376 kts | 292° |
| 2026-05-07 21:02 | 9.24415 | -79.97852 | 20323 ft | 379 kts | 292° |
| 2026-05-07 21:02 | 9.25416 | -80.00337 | 20844 ft | 382 kts | 292° |
| 2026-05-07 21:02 | 9.26421 | -80.02836 | 21361 ft | 385 kts | 292° |
| 2026-05-07 21:02 | 9.27433 | -80.05361 | 21849 ft | 388 kts | 292° |
| 2026-05-07 21:03 | 9.28453 | -80.07897 | 22333 ft | 391 kts | 292° |
| 2026-05-07 21:03 | 9.29484 | -80.10450 | 22802 ft | 393 kts | 292° |
| 2026-05-07 21:03 | 9.30521 | -80.13024 | 23256 ft | 396 kts | 292° |
| 2026-05-07 21:03 | 9.31568 | -80.15618 | 23714 ft | 399 kts | 292° |
| 2026-05-07 21:04 | 9.32620 | -80.18230 | 24139 ft | 402 kts | 292° |
| 2026-05-07 21:04 | 9.33676 | -80.20859 | 24559 ft | 404 kts | 292° |
| 2026-05-07 21:04 | 9.34738 | -80.23507 | 24970 ft | 407 kts | 292° |
| 2026-05-07 21:04 | 9.35807 | -80.26171 | 25367 ft | 409 kts | 292° |
| 2026-05-07 21:05 | 9.36881 | -80.28849 | 25765 ft | 412 kts | 292° |
| 2026-05-07 21:05 | 9.37965 | -80.31547 | 26148 ft | 414 kts | 292° |
| 2026-05-07 21:05 | 9.39056 | -80.34259 | 26523 ft | 417 kts | 292° |
| 2026-05-07 21:05 | 9.40151 | -80.36984 | 26893 ft | 419 kts | 292° |
| 2026-05-07 21:06 | 9.41250 | -80.39726 | 27248 ft | 421 kts | 292° |
| 2026-05-07 21:06 | 9.42342 | -80.42451 | 27598 ft | 424 kts | 292° |
| 2026-05-07 21:06 | 9.43455 | -80.45223 | 27940 ft | 426 kts | 292° |
| 2026-05-07 21:06 | 9.44575 | -80.48016 | 28287 ft | 428 kts | 292° |
| 2026-05-07 21:07 | 9.45700 | -80.50815 | 28609 ft | 430 kts | 292° |
| 2026-05-07 21:07 | 9.46832 | -80.53628 | 28935 ft | 433 kts | 292° |
| 2026-05-07 21:07 | 9.47968 | -80.56458 | 29253 ft | 435 kts | 292° |
| 2026-05-07 21:07 | 9.49110 | -80.59305 | 29555 ft | 437 kts | 292° |
| 2026-05-07 21:08 | 9.50256 | -80.62162 | 29869 ft | 439 kts | 292° |
| 2026-05-07 21:08 | 9.51406 | -80.65036 | 30163 ft | 441 kts | 292° |
| 2026-05-07 21:08 | 9.52561 | -80.67925 | 30447 ft | 443 kts | 292° |
| 2026-05-07 21:08 | 9.53720 | -80.70828 | 30720 ft | 445 kts | 292° |
| 2026-05-07 21:09 | 9.54873 | -80.73708 | 30982 ft | 447 kts | 292° |
| 2026-05-07 21:09 | 9.56045 | -80.76632 | 31242 ft | 449 kts | 292° |
| 2026-05-07 21:09 | 9.57221 | -80.79567 | 31514 ft | 450 kts | 292° |
| 2026-05-07 21:09 | 9.58396 | -80.82500 | 31879 ft | 449 kts | 292° |
| 2026-05-07 21:10 | 9.59751 | -80.85346 | 32228 ft | 448 kts | 300° |
| 2026-05-07 21:10 | 9.61410 | -80.88013 | 32566 ft | 447 kts | 302° |
| 2026-05-07 21:10 | 9.63079 | -80.90669 | 32908 ft | 446 kts | 302° |
| 2026-05-07 21:10 | 9.64746 | -80.93325 | 33238 ft | 446 kts | 302° |
| 2026-05-07 21:11 | 9.66409 | -80.95976 | 33569 ft | 445 kts | 302° |
| 2026-05-07 21:11 | 9.68069 | -80.98624 | 33899 ft | 444 kts | 302° |
| 2026-05-07 21:11 | 9.71383 | -81.03905 | 34540 ft | 443 kts | 302° |
| 2026-05-07 21:12 | 9.73034 | -81.06541 | 34842 ft | 442 kts | 302° |
| 2026-05-07 21:12 | 9.74662 | -81.09141 | 35127 ft | 442 kts | 302° |
| 2026-05-07 21:12 | 9.76308 | -81.11771 | 35404 ft | 441 kts | 302° |
| 2026-05-07 21:12 | 9.77952 | -81.14399 | 35671 ft | 441 kts | 302° |
| 2026-05-07 21:13 | 9.79592 | -81.17023 | 35915 ft | 441 kts | 302° |
| 2026-05-07 21:13 | 9.81229 | -81.19644 | 35998 ft | 438 kts | 302° |
| 2026-05-07 21:13 | 9.84476 | -81.24840 | 36012 ft | 434 kts | 302° |
| 2026-05-07 21:14 | 9.87707 | -81.30013 | 36008 ft | 434 kts | 302° |
| 2026-05-07 21:14 | 9.90941 | -81.35181 | 36008 ft | 434 kts | 302° |
| 2026-05-07 21:15 | 9.94175 | -81.40343 | 36008 ft | 434 kts | 302° |
| 2026-05-07 21:15 | 9.97407 | -81.45511 | 36013 ft | 434 kts | 302° |
| 2026-05-07 21:16 | 10.00620 | -81.50655 | 36011 ft | 434 kts | 302° |
| 2026-05-07 21:16 | 10.03853 | -81.55834 | 36012 ft | 434 kts | 302° |
| 2026-05-07 21:17 | 10.07074 | -81.61023 | 36013 ft | 434 kts | 302° |
| 2026-05-07 21:17 | 10.10293 | -81.66201 | 36013 ft | 434 kts | 302° |
| 2026-05-07 21:18 | 10.13523 | -81.71381 | 36014 ft | 434 kts | 302° |
| 2026-05-07 21:18 | 10.16758 | -81.76557 | 36014 ft | 434 kts | 302° |
| 2026-05-07 21:19 | 10.19966 | -81.81703 | 36014 ft | 434 kts | 302° |
| 2026-05-07 21:19 | 10.23182 | -81.86880 | 36014 ft | 434 kts | 302° |
| 2026-05-07 21:20 | 10.26403 | -81.92063 | 36014 ft | 434 kts | 302° |
| 2026-05-07 21:20 | 10.29627 | -81.97252 | 36014 ft | 434 kts | 302° |
| 2026-05-07 21:21 | 10.32845 | -82.02431 | 36014 ft | 434 kts | 302° |
| 2026-05-07 21:21 | 10.36066 | -82.07608 | 36014 ft | 434 kts | 302° |
| 2026-05-07 21:22 | 10.39286 | -82.12791 | 36013 ft | 434 kts | 302° |
| 2026-05-07 21:22 | 10.42500 | -82.17983 | 36013 ft | 434 kts | 302° |
| 2026-05-07 21:23 | 10.45711 | -82.23174 | 36013 ft | 434 kts | 302° |
| 2026-05-07 21:23 | 10.48930 | -82.28357 | 36013 ft | 434 kts | 302° |
| 2026-05-07 21:24 | 10.52124 | -82.33511 | 36012 ft | 433 kts | 302° |
| 2026-05-07 21:24 | 10.55334 | -82.38695 | 36012 ft | 433 kts | 302° |
| 2026-05-07 21:25 | 10.58548 | -82.43882 | 36012 ft | 433 kts | 302° |
| 2026-05-07 21:25 | 10.61757 | -82.49067 | 36012 ft | 433 kts | 302° |
| 2026-05-07 21:26 | 10.64970 | -82.54259 | 36011 ft | 433 kts | 302° |
| 2026-05-07 21:26 | 10.68178 | -82.59447 | 36013 ft | 433 kts | 302° |
| 2026-05-07 21:27 | 10.71360 | -82.64649 | 36011 ft | 433 kts | 300° |
| 2026-05-07 21:27 | 10.74250 | -82.70027 | 36010 ft | 433 kts | 297° |
| 2026-05-07 21:28 | 10.76976 | -82.75448 | 36011 ft | 433 kts | 297° |
| 2026-05-07 21:28 | 10.79743 | -82.80895 | 36010 ft | 433 kts | 297° |
| 2026-05-07 21:29 | 10.82556 | -82.86311 | 36009 ft | 433 kts | 298° |
| 2026-05-07 21:29 | 10.85394 | -82.91722 | 36012 ft | 433 kts | 298° |
| 2026-05-07 21:30 | 10.88224 | -82.97132 | 36009 ft | 433 kts | 297° |
| 2026-05-07 21:30 | 10.91039 | -83.02549 | 36009 ft | 433 kts | 297° |
| 2026-05-07 21:31 | 10.93857 | -83.07967 | 36005 ft | 433 kts | 297° |
| 2026-05-07 21:31 | 10.96661 | -83.13354 | 36007 ft | 433 kts | 297° |
| 2026-05-07 21:32 | 10.99495 | -83.18808 | 36006 ft | 433 kts | 297° |
| 2026-05-07 21:32 | 11.01835 | -83.23308 | 36004 ft | 433 kts | 297° |
| 2026-05-07 21:33 | 11.05101 | -83.29607 | 36007 ft | 433 kts | 297° |
| 2026-05-07 21:33 | 11.07918 | -83.35032 | 36005 ft | 433 kts | 297° |
| 2026-05-07 21:34 | 11.10257 | -83.39537 | 36004 ft | 433 kts | 297° |
| 2026-05-07 21:34 | 11.13064 | -83.44955 | 36003 ft | 433 kts | 297° |
| 2026-05-07 21:35 | 11.15867 | -83.50377 | 36003 ft | 432 kts | 297° |
| 2026-05-07 21:35 | 11.18668 | -83.55797 | 36000 ft | 432 kts | 297° |
| 2026-05-07 21:36 | 11.21471 | -83.61214 | 35998 ft | 432 kts | 297° |
| 2026-05-07 21:36 | 11.24282 | -83.66632 | 36002 ft | 432 kts | 297° |
| 2026-05-07 21:37 | 11.27082 | -83.72048 | 36001 ft | 432 kts | 297° |
| 2026-05-07 21:37 | 11.29882 | -83.77474 | 36002 ft | 432 kts | 297° |
| 2026-05-07 21:38 | 11.32665 | -83.82859 | 35999 ft | 432 kts | 297° |
| 2026-05-07 21:38 | 11.35463 | -83.88282 | 36000 ft | 432 kts | 297° |
| 2026-05-07 21:39 | 11.38259 | -83.93710 | 36002 ft | 433 kts | 297° |
| 2026-05-07 21:39 | 11.41060 | -83.99142 | 35999 ft | 433 kts | 297° |
| 2026-05-07 21:40 | 11.43865 | -84.04587 | 36002 ft | 433 kts | 297° |
| 2026-05-07 21:40 | 11.46668 | -84.10033 | 36002 ft | 434 kts | 297° |
| 2026-05-07 21:41 | 11.49453 | -84.15450 | 36010 ft | 434 kts | 297° |
| 2026-05-07 21:41 | 11.52261 | -84.20900 | 36012 ft | 434 kts | 297° |
| 2026-05-07 21:42 | 11.55062 | -84.26350 | 36012 ft | 434 kts | 297° |
| 2026-05-07 21:42 | 11.57859 | -84.31800 | 36013 ft | 434 kts | 297° |
| 2026-05-07 21:43 | 11.60651 | -84.37250 | 36009 ft | 434 kts | 297° |
| 2026-05-07 21:43 | 11.63452 | -84.42705 | 36004 ft | 434 kts | 297° |
| 2026-05-07 21:44 | 11.66251 | -84.48155 | 36004 ft | 434 kts | 297° |
| 2026-05-07 21:44 | 11.69049 | -84.53612 | 36008 ft | 434 kts | 297° |
| 2026-05-07 21:45 | 11.71840 | -84.59067 | 36004 ft | 434 kts | 297° |
| 2026-05-07 21:45 | 11.74616 | -84.64486 | 36005 ft | 434 kts | 297° |
| 2026-05-07 21:46 | 11.77408 | -84.69944 | 36006 ft | 434 kts | 297° |
| 2026-05-07 21:46 | 11.80198 | -84.75402 | 36002 ft | 434 kts | 297° |
| 2026-05-07 21:47 | 11.82990 | -84.80859 | 36001 ft | 434 kts | 297° |
| 2026-05-07 21:47 | 11.85781 | -84.86321 | 36004 ft | 433 kts | 297° |
| 2026-05-07 21:48 | 11.88562 | -84.91779 | 36004 ft | 433 kts | 297° |
| 2026-05-07 21:48 | 11.91346 | -84.97237 | 36003 ft | 433 kts | 297° |
| 2026-05-07 21:49 | 11.94138 | -85.02693 | 36000 ft | 433 kts | 297° |
| 2026-05-07 21:49 | 11.96924 | -85.08160 | 36007 ft | 434 kts | 297° |
| 2026-05-07 21:50 | 11.99707 | -85.13625 | 36006 ft | 434 kts | 297° |
| 2026-05-07 21:50 | 12.02488 | -85.19092 | 36008 ft | 434 kts | 297° |
| 2026-05-07 21:51 | 12.05248 | -85.24528 | 36006 ft | 434 kts | 297° |
| 2026-05-07 21:51 | 12.08033 | -85.30005 | 36004 ft | 434 kts | 297° |
| 2026-05-07 21:52 | 12.10814 | -85.35476 | 36010 ft | 434 kts | 297° |
| 2026-05-07 21:52 | 12.13583 | -85.40934 | 36012 ft | 433 kts | 297° |
| 2026-05-07 21:53 | 12.16370 | -85.46414 | 36011 ft | 433 kts | 297° |
| 2026-05-07 21:53 | 12.19135 | -85.51870 | 36009 ft | 433 kts | 297° |
| 2026-05-07 21:54 | 12.21916 | -85.57354 | 36005 ft | 433 kts | 297° |
| 2026-05-07 21:54 | 12.24680 | -85.62823 | 36003 ft | 434 kts | 297° |
| 2026-05-07 21:55 | 12.27430 | -85.68269 | 36005 ft | 434 kts | 297° |
| 2026-05-07 21:55 | 12.30214 | -85.73760 | 36004 ft | 434 kts | 297° |
| 2026-05-07 21:56 | 12.32996 | -85.79256 | 35999 ft | 434 kts | 297° |
| 2026-05-07 21:56 | 12.35770 | -85.84740 | 36002 ft | 434 kts | 297° |
| 2026-05-07 21:57 | 12.38523 | -85.90196 | 36005 ft | 434 kts | 297° |
| 2026-05-07 21:57 | 12.41300 | -85.95708 | 36006 ft | 434 kts | 297° |
| 2026-05-07 21:58 | 12.44061 | -86.01180 | 36010 ft | 434 kts | 297° |
| 2026-05-07 21:58 | 12.46841 | -86.06682 | 36014 ft | 434 kts | 297° |
| 2026-05-07 21:59 | 12.49606 | -86.12163 | 36013 ft | 434 kts | 297° |
| 2026-05-07 21:59 | 12.52361 | -86.17636 | 36015 ft | 434 kts | 297° |
| 2026-05-07 22:00 | 12.55115 | -86.23127 | 36016 ft | 433 kts | 297° |
| 2026-05-07 22:00 | 12.57875 | -86.28613 | 36016 ft | 434 kts | 297° |
| 2026-05-07 22:01 | 12.60633 | -86.34103 | 36018 ft | 434 kts | 297° |
| 2026-05-07 22:01 | 12.63389 | -86.39592 | 36020 ft | 433 kts | 297° |
| 2026-05-07 22:02 | 12.66141 | -86.45081 | 36019 ft | 433 kts | 297° |
| 2026-05-07 22:02 | 12.68889 | -86.50564 | 36016 ft | 432 kts | 297° |
| 2026-05-07 22:03 | 12.71635 | -86.56040 | 36012 ft | 432 kts | 297° |
| 2026-05-07 22:03 | 12.74382 | -86.61514 | 36011 ft | 432 kts | 297° |
| 2026-05-07 22:04 | 12.77110 | -86.66960 | 36010 ft | 432 kts | 297° |
| 2026-05-07 22:04 | 12.79854 | -86.72444 | 36012 ft | 432 kts | 297° |
| 2026-05-07 22:05 | 12.82597 | -86.77932 | 36012 ft | 432 kts | 297° |
| 2026-05-07 22:05 | 12.85338 | -86.83415 | 36014 ft | 432 kts | 297° |
| 2026-05-07 22:06 | 12.88082 | -86.88899 | 36016 ft | 432 kts | 297° |
| 2026-05-07 22:06 | 12.90824 | -86.94394 | 36018 ft | 432 kts | 297° |
| 2026-05-07 22:07 | 12.93557 | -86.99880 | 36018 ft | 432 kts | 297° |
| 2026-05-07 22:07 | 12.96294 | -87.05368 | 36016 ft | 432 kts | 297° |
| 2026-05-07 22:08 | 12.99011 | -87.10818 | 36012 ft | 431 kts | 297° |
| 2026-05-07 22:08 | 13.01743 | -87.16299 | 36010 ft | 431 kts | 297° |
| 2026-05-07 22:09 | 13.04472 | -87.21781 | 36006 ft | 431 kts | 297° |
| 2026-05-07 22:09 | 13.07197 | -87.27262 | 36003 ft | 431 kts | 297° |
| 2026-05-07 22:10 | 13.09914 | -87.32740 | 36003 ft | 431 kts | 297° |
| 2026-05-07 22:10 | 13.12633 | -87.38226 | 36002 ft | 431 kts | 297° |
| 2026-05-07 22:11 | 13.15187 | -87.43386 | 36005 ft | 431 kts | 297° |
| 2026-05-07 22:11 | 13.17950 | -87.48968 | 36002 ft | 431 kts | 297° |
| 2026-05-07 22:12 | 13.20667 | -87.54451 | 36003 ft | 431 kts | 297° |
| 2026-05-07 22:12 | 13.23321 | -87.59793 | 36003 ft | 431 kts | 297° |
| 2026-05-07 22:13 | 13.26047 | -87.65280 | 36004 ft | 431 kts | 297° |
| 2026-05-07 22:13 | 13.28758 | -87.70763 | 36003 ft | 431 kts | 297° |
| 2026-05-07 22:14 | 13.31415 | -87.76144 | 36005 ft | 431 kts | 296° |
| 2026-05-07 22:14 | 13.34122 | -87.81631 | 36010 ft | 431 kts | 297° |
| 2026-05-07 22:15 | 13.36839 | -87.87124 | 36011 ft | 431 kts | 297° |
| 2026-05-07 22:15 | 13.39564 | -87.92626 | 36012 ft | 431 kts | 297° |
| 2026-05-07 22:16 | 13.42273 | -87.98123 | 36006 ft | 432 kts | 296° |
| 2026-05-07 22:16 | 13.44977 | -88.03640 | 36001 ft | 432 kts | 296° |
| 2026-05-07 22:17 | 13.47693 | -88.09151 | 36006 ft | 432 kts | 297° |
| 2026-05-07 22:17 | 13.50410 | -88.14665 | 36007 ft | 432 kts | 296° |
| 2026-05-07 22:18 | 13.54476 | -88.22934 | 36007 ft | 432 kts | 296° |
| 2026-05-07 22:19 | 13.57161 | -88.28411 | 36006 ft | 432 kts | 296° |
| 2026-05-07 22:19 | 13.59870 | -88.33926 | 36002 ft | 432 kts | 296° |
| 2026-05-07 22:20 | 13.62579 | -88.39441 | 36003 ft | 432 kts | 296° |
| 2026-05-07 22:20 | 13.65049 | -88.45067 | 36007 ft | 431 kts | 289° |
| 2026-05-07 22:21 | 13.67010 | -88.50893 | 36009 ft | 431 kts | 289° |
| 2026-05-07 22:21 | 13.68982 | -88.56715 | 36002 ft | 431 kts | 289° |
| 2026-05-07 22:22 | 13.70622 | -88.61559 | 36002 ft | 431 kts | 289° |
| 2026-05-07 22:22 | 13.71940 | -88.65466 | 35690 ft | 433 kts | 289° |
| 2026-05-07 22:22 | 13.72593 | -88.67405 | 35525 ft | 432 kts | 289° |
| 2026-05-07 22:22 | 13.73574 | -88.70322 | 35279 ft | 431 kts | 289° |
| 2026-05-07 22:23 | 13.74553 | -88.73228 | 35024 ft | 429 kts | 289° |
| 2026-05-07 22:23 | 13.75532 | -88.76123 | 34772 ft | 428 kts | 289° |
| 2026-05-07 22:23 | 13.76506 | -88.79008 | 34523 ft | 426 kts | 289° |
| 2026-05-07 22:23 | 13.77473 | -88.81882 | 34272 ft | 425 kts | 289° |
| 2026-05-07 22:24 | 13.78437 | -88.84752 | 34022 ft | 423 kts | 289° |
| 2026-05-07 22:24 | 13.79397 | -88.87607 | 33755 ft | 422 kts | 289° |
| 2026-05-07 22:24 | 13.80356 | -88.90457 | 33538 ft | 420 kts | 289° |
| 2026-05-07 22:24 | 13.81309 | -88.93292 | 33296 ft | 419 kts | 289° |
| 2026-05-07 22:25 | 13.82256 | -88.96115 | 33048 ft | 417 kts | 289° |
| 2026-05-07 22:25 | 13.83199 | -88.98929 | 32798 ft | 415 kts | 289° |
| 2026-05-07 22:25 | 13.84140 | -89.01734 | 32547 ft | 413 kts | 289° |
| 2026-05-07 22:25 | 13.85075 | -89.04520 | 32298 ft | 412 kts | 289° |
| 2026-05-07 22:26 | 13.86010 | -89.07307 | 32046 ft | 411 kts | 289° |
| 2026-05-07 22:26 | 13.86930 | -89.10041 | 31799 ft | 409 kts | 289° |
| 2026-05-07 22:26 | 13.87860 | -89.12804 | 31549 ft | 408 kts | 289° |
| 2026-05-07 22:26 | 13.88787 | -89.15560 | 31299 ft | 406 kts | 289° |
| 2026-05-07 22:27 | 13.89703 | -89.18296 | 31050 ft | 403 kts | 289° |
| 2026-05-07 22:27 | 13.90613 | -89.21015 | 30800 ft | 401 kts | 289° |
| 2026-05-07 22:27 | 13.91519 | -89.23721 | 30549 ft | 399 kts | 289° |
| 2026-05-07 22:27 | 13.92421 | -89.26419 | 30297 ft | 397 kts | 289° |
| 2026-05-07 22:28 | 13.93320 | -89.29103 | 30047 ft | 396 kts | 289° |
| 2026-05-07 22:28 | 13.94216 | -89.31777 | 29797 ft | 394 kts | 289° |
| 2026-05-07 22:28 | 13.95105 | -89.34436 | 29545 ft | 392 kts | 289° |
| 2026-05-07 22:28 | 13.95991 | -89.37088 | 29296 ft | 391 kts | 289° |
| 2026-05-07 22:29 | 13.96874 | -89.39734 | 29043 ft | 390 kts | 289° |
| 2026-05-07 22:29 | 13.97753 | -89.42367 | 28796 ft | 388 kts | 289° |
| 2026-05-07 22:29 | 13.98627 | -89.44989 | 28545 ft | 387 kts | 289° |
| 2026-05-07 22:29 | 13.99499 | -89.47610 | 28300 ft | 385 kts | 289° |
| 2026-05-07 22:30 | 14.00368 | -89.50213 | 28043 ft | 384 kts | 289° |
| 2026-05-07 22:30 | 14.01236 | -89.52809 | 27791 ft | 383 kts | 289° |
| 2026-05-07 22:30 | 14.02098 | -89.55394 | 27543 ft | 381 kts | 289° |
| 2026-05-07 22:30 | 14.02957 | -89.57975 | 27292 ft | 381 kts | 289° |
| 2026-05-07 22:31 | 14.03813 | -89.60550 | 27043 ft | 379 kts | 289° |
| 2026-05-07 22:31 | 14.04653 | -89.63087 | 26795 ft | 377 kts | 289° |
| 2026-05-07 22:31 | 14.05498 | -89.65640 | 26548 ft | 376 kts | 289° |
| 2026-05-07 22:31 | 14.06343 | -89.68187 | 26294 ft | 374 kts | 289° |
| 2026-05-07 22:32 | 14.07186 | -89.70722 | 26041 ft | 373 kts | 289° |
| 2026-05-07 22:32 | 14.08023 | -89.73241 | 25794 ft | 371 kts | 289° |
| 2026-05-07 22:32 | 14.08858 | -89.75751 | 25543 ft | 370 kts | 289° |
| 2026-05-07 22:32 | 14.09691 | -89.78251 | 25292 ft | 368 kts | 289° |
| 2026-05-07 22:33 | 14.10520 | -89.80747 | 25042 ft | 368 kts | 289° |
| 2026-05-07 22:33 | 14.11346 | -89.83234 | 24793 ft | 366 kts | 289° |
| 2026-05-07 22:33 | 14.12166 | -89.85706 | 24543 ft | 364 kts | 289° |
| 2026-05-07 22:33 | 14.12981 | -89.88167 | 24260 ft | 361 kts | 289° |
| 2026-05-07 22:34 | 14.13789 | -89.90605 | 23823 ft | 358 kts | 289° |
| 2026-05-07 22:34 | 14.14589 | -89.93025 | 23355 ft | 356 kts | 289° |
| 2026-05-07 22:34 | 14.15384 | -89.95432 | 22887 ft | 355 kts | 289° |
| 2026-05-07 22:34 | 14.16176 | -89.97834 | 22443 ft | 353 kts | 288° |
| 2026-05-07 22:35 | 14.16953 | -90.00198 | 22003 ft | 352 kts | 288° |
| 2026-05-07 22:35 | 14.17739 | -90.02582 | 21552 ft | 350 kts | 289° |
| 2026-05-07 22:35 | 14.18526 | -90.04954 | 21109 ft | 349 kts | 289° |
| 2026-05-07 22:35 | 14.19310 | -90.07311 | 20675 ft | 347 kts | 289° |
| 2026-05-07 22:36 | 14.20089 | -90.09663 | 20243 ft | 345 kts | 289° |
| 2026-05-07 22:36 | 14.20893 | -90.11985 | 19815 ft | 343 kts | 293° |
| 2026-05-07 22:36 | 14.22005 | -90.14153 | 19401 ft | 341 kts | 300° |
| 2026-05-07 22:36 | 14.23197 | -90.16261 | 18989 ft | 339 kts | 300° |
| 2026-05-07 22:37 | 14.24385 | -90.18359 | 18581 ft | 337 kts | 300° |
| 2026-05-07 22:37 | 14.25564 | -90.20441 | 18174 ft | 336 kts | 300° |
| 2026-05-07 22:37 | 14.26736 | -90.22518 | 17784 ft | 334 kts | 300° |
| 2026-05-07 22:37 | 14.27903 | -90.24586 | 17378 ft | 333 kts | 300° |
| 2026-05-07 22:38 | 14.29050 | -90.26619 | 16988 ft | 331 kts | 300° |
| 2026-05-07 22:38 | 14.30201 | -90.28665 | 16593 ft | 329 kts | 300° |
| 2026-05-07 22:38 | 14.31347 | -90.30707 | 16217 ft | 328 kts | 300° |
| 2026-05-07 22:38 | 14.32616 | -90.32652 | 15855 ft | 326 kts | 308° |
| 2026-05-07 22:39 | 14.34145 | -90.34370 | 15505 ft | 324 kts | 316° |
| 2026-05-07 22:39 | 14.35875 | -90.35853 | 15151 ft | 323 kts | 324° |
| 2026-05-07 22:39 | 14.37772 | -90.37075 | 14799 ft | 321 kts | 332° |
| 2026-05-07 22:39 | 14.39810 | -90.38011 | 14442 ft | 320 kts | 340° |
| 2026-05-07 22:40 | 14.41946 | -90.38637 | 14090 ft | 318 kts | 348° |
| 2026-05-07 22:40 | 14.44134 | -90.38942 | 13732 ft | 317 kts | 356° |
| 2026-05-07 22:40 | 14.46338 | -90.38923 | 13371 ft | 316 kts | 4° |
| 2026-05-07 22:40 | 14.48529 | -90.38756 | 12993 ft | 315 kts | 4° |
| 2026-05-07 22:41 | 14.50684 | -90.38600 | 12605 ft | 314 kts | 4° |
| 2026-05-07 22:41 | 14.52862 | -90.38445 | 12213 ft | 314 kts | 4° |
| 2026-05-07 22:41 | 14.55040 | -90.38290 | 11817 ft | 313 kts | 4° |
| 2026-05-07 22:41 | 14.57213 | -90.38137 | 11412 ft | 313 kts | 4° |
| 2026-05-07 22:42 | 14.59384 | -90.37983 | 11006 ft | 312 kts | 4° |
| 2026-05-07 22:42 | 14.61529 | -90.37829 | 10854 ft | 302 kts | 4° |
| 2026-05-07 22:42 | 14.63591 | -90.37683 | 10743 ft | 292 kts | 4° |
| 2026-05-07 22:42 | 14.65596 | -90.37541 | 10509 ft | 287 kts | 4° |
| 2026-05-07 22:43 | 14.67561 | -90.37408 | 10343 ft | 278 kts | 1° |
| 2026-05-07 22:43 | 14.69475 | -90.37646 | 9936 ft | 279 kts | 342° |
| 2026-05-07 22:43 | 14.71208 | -90.38528 | 9543 ft | 279 kts | 322° |
| 2026-05-07 22:43 | 14.72550 | -90.39951 | 9162 ft | 277 kts | 303° |
| 2026-05-07 22:44 | 14.73362 | -90.41745 | 8789 ft | 276 kts | 284° |
| 2026-05-07 22:44 | 14.73573 | -90.43674 | 8417 ft | 275 kts | 267° |
| 2026-05-07 22:44 | 14.73209 | -90.45597 | 8036 ft | 273 kts | 249° |
| 2026-05-07 22:44 | 14.72257 | -90.47281 | 7664 ft | 272 kts | 229° |
| 2026-05-07 22:45 | 14.70860 | -90.48523 | 7267 ft | 256 kts | 211° |
| 2026-05-07 22:45 | 14.69326 | -90.49209 | 6931 ft | 228 kts | 196° |
| 2026-05-07 22:45 | 14.67852 | -90.49656 | 6595 ft | 213 kts | 197° |
| 2026-05-07 22:45 | 14.66525 | -90.50070 | 6452 ft | 188 kts | 199° |
| 2026-05-07 22:46 | 14.65365 | -90.50488 | 6332 ft | 168 kts | 199° |
| 2026-05-07 22:46 | 14.64279 | -90.50854 | 6037 ft | 158 kts | 198° |
| 2026-05-07 22:46 | 14.63246 | -90.51185 | 5783 ft | 153 kts | 197° |
| 2026-05-07 22:46 | 14.62236 | -90.51493 | 5603 ft | 151 kts | 197° |
| 2026-05-07 22:47 | 14.61236 | -90.51804 | 5410 ft | 150 kts | 198° |
| 2026-05-07 22:47 | 14.60251 | -90.52133 | 5211 ft | 149 kts | 198° |
| 2026-05-07 22:47 | 14.59258 | -90.52442 | 4980 ft | 147 kts | 198° |
| 2026-05-07 22:47 | 14.58357 | -90.52738 | 4922 ft | 108 kts | 197° |
| 2026-05-07 22:48 | 14.57930 | -90.52875 | 4905 ft | 27 kts | 197° |
| 2026-05-07 22:48 | 14.57818 | -90.52917 | 4895 ft | 6 kts | 237° |
| 2026-05-07 22:48 | 14.57831 | -90.52941 | 4900 ft | 2 kts | 313° |
| 2026-05-07 22:48 | 14.57840 | -90.52946 | 4897 ft | 3 kts | 330° |
| 2026-05-07 22:49 | 14.57880 | -90.52961 | 4902 ft | 9 kts | 358° |
| 2026-05-07 22:49 | 14.57958 | -90.52939 | 4906 ft | 14 kts | 18° |
| 2026-05-07 22:49 | 14.58062 | -90.52904 | 4912 ft | 16 kts | 18° |
| 2026-05-07 22:49 | 14.58168 | -90.52870 | 4914 ft | 16 kts | 17° |
| 2026-05-07 22:50 | 14.58274 | -90.52837 | 4916 ft | 15 kts | 17° |
| 2026-05-07 22:50 | 14.58373 | -90.52805 | 4919 ft | 15 kts | 18° |
| 2026-05-07 22:50 | 14.58475 | -90.52771 | 4918 ft | 16 kts | 18° |
| 2026-05-07 22:50 | 14.58584 | -90.52736 | 4922 ft | 16 kts | 17° |
| 2026-05-07 22:51 | 14.58671 | -90.52716 | 4924 ft | 8 kts | 342° |
| 2026-05-07 22:51 | 14.58688 | -90.52742 | 4926 ft | 2 kts | 289° |
| 2026-05-07 22:51 | 14.58697 | -90.52769 | 4927 ft | 10 kts | 289° |
| 2026-05-07 22:51 | 14.58774 | -90.52819 | 4932 ft | 17 kts | 2° |
| 2026-05-07 22:52 | 14.58858 | -90.52797 | 4930 ft | 10 kts | 4° |
| 2026-05-07 22:52 | 14.58875 | -90.52845 | 4930 ft | 7 kts | 269° |
| 2026-05-07 22:52 | 14.58883 | -90.52883 | 4930 ft | 5 kts | 286° |
| 2026-05-07 22:52 | 14.58890 | -90.52906 | 4930 ft | 0 kts | 287° |
| 2026-05-07 22:53 | 14.58890 | -90.52908 | 4930 ft | 0 kts | 287° |